16 | 07 | 2019

Daten Vortag

Wetterdaten von 10m Höhe gemessen, Station 2

Datum / Zeit Intervall min Luftfeuchte % Temperatur °C absolut Luftdruck hPa Wind m/s Windbö m/s Richtung Relative Luftdruck hPa Taupunkt °C Windchill °C Niederschlag mm
15-07-2019 00:17 5 84 14.6 1016.7 7.2 15.8 SW 1017.4 11.9 13.7 0.0
15-07-2019 00:22 5 85 14.5 1016.5 6.1 12.2 SW 1017.2 12.0 14.5 0.0
15-07-2019 00:27 5 85 14.5 1016.6 8.6 12.2 S 1017.3 12.0 12.9 0.0
15-07-2019 00:32 5 85 14.4 1016.5 8.6 13.3 SW 1017.2 11.9 12.8 0.0
15-07-2019 00:37 5 86 14.3 1016.4 7.2 12.2 W 1017.1 12.0 13.4 0.0
15-07-2019 00:42 5 86 14.2 1016.4 7.2 11.2 SW 1017.1 11.9 13.3 0.0
15-07-2019 00:47 5 87 14.2 1016.4 8.6 13.3 SW 1017.1 12.1 12.6 0.0
15-07-2019 00:52 5 88 14.1 1016.4 7.2 12.2 SW 1017.1 12.2 13.2 0.0
15-07-2019 00:57 5 88 14.0 1016.4 7.2 13.3 SW 1017.1 12.1 13.1 0.0
15-07-2019 01:02 5 88 14.0 1016.5 9.7 12.2 W 1017.2 12.1 11.9 0.0
15-07-2019 01:07 5 88 14.0 1016.4 8.6 13.3 SW 1017.1 12.1 12.3 0.0
15-07-2019 01:12 5 88 14.0 1016.4 7.2 13.3 SW 1017.1 12.1 13.1 0.0
15-07-2019 01:17 5 88 14.0 1016.4 7.2 14.8 SW 1017.1 12.1 13.1 0.0
15-07-2019 01:22 5 88 14.1 1016.2 8.6 13.3 W 1016.9 12.2 12.5 0.0
15-07-2019 01:27 5 87 14.1 1016.2 11.2 17.3 W 1016.9 12.0 11.4 0.0
15-07-2019 01:32 5 87 14.1 1016.2 9.7 17.3 W 1016.9 12.0 12.0 0.0
15-07-2019 01:37 5 87 14.1 1016.2 9.7 15.8 W 1016.9 12.0 12.0 0.0
15-07-2019 01:42 5 87 14.2 1016.2 6.1 11.2 W 1016.9 12.1 14.2 0.0
15-07-2019 01:47 5 87 14.2 1016.2 9.7 13.3 S 1016.9 12.1 12.1 0.0
15-07-2019 01:52 5 87 14.2 1016.3 8.6 13.3 W 1017.0 12.1 12.6 0.0
15-07-2019 01:57 5 87 14.1 1016.3 11.2 17.3 W 1017.0 12.0 11.4 0.0
15-07-2019 02:02 5 87 14.1 1016.2 9.7 13.3 W 1016.9 12.0 12.0 0.0
15-07-2019 02:07 5 87 14.0 1016.2 8.6 12.2 W 1016.9 11.9 12.3 0.0
15-07-2019 02:12 5 88 14.0 1016.2 8.6 14.8 SW 1016.9 12.1 12.3 0.0
15-07-2019 02:17 5 88 13.9 1016.1 9.7 17.3 SW 1016.8 12.0 11.7 0.0
15-07-2019 02:22 5 88 13.9 1016.2 7.2 12.2 SW 1016.9 12.0 13.0 0.0
15-07-2019 02:27 5 89 13.8 1016.2 5.0 7.2 SW 1016.9 12.0 13.8 0.0
15-07-2019 02:32 5 89 13.7 1016.1 3.6 6.1 W 1016.8 11.9 13.7 0.0
15-07-2019 02:37 5 89 13.7 1016.0 6.1 11.2 W 1016.7 11.9 13.7 0.0
15-07-2019 02:42 5 90 13.7 1016.1 7.2 11.2 W 1016.8 12.1 12.8 0.0
15-07-2019 02:47 5 90 13.7 1015.9 6.1 11.2 W 1016.6 12.1 13.7 0.0
15-07-2019 02:52 5 90 13.7 1015.8 7.2 9.7 SW 1016.5 12.1 12.8 0.0
15-07-2019 02:57 5 90 13.7 1015.9 6.1 8.6 SW 1016.6 12.1 13.7 0.0
15-07-2019 03:02 5 90 13.7 1015.8 7.2 9.7 S 1016.5 12.1 12.8 0.0
15-07-2019 03:07 5 89 13.7 1015.8 13.3 18.4 SW 1016.5 11.9 10.1 0.0
15-07-2019 03:12 5 89 13.7 1015.8 7.2 12.2 SW 1016.5 11.9 12.8 0.0
15-07-2019 03:17 5 89 13.6 1015.7 12.2 14.8 W 1016.4 11.8 10.4 0.0
15-07-2019 03:22 5 89 13.6 1015.7 14.8 20.9 W 1016.4 11.8 9.6 0.0
15-07-2019 03:27 5 89 13.5 1015.8 12.2 18.4 SW 1016.5 11.7 10.3 0.0
15-07-2019 03:32 5 90 13.5 1015.7 7.2 12.2 W 1016.4 11.9 12.5 0.0
15-07-2019 03:37 5 90 13.4 1015.6 5.0 7.2 W 1016.3 11.8 13.4 0.0
15-07-2019 03:42 5 90 13.4 1015.6 7.2 13.3 W 1016.3 11.8 12.4 0.0
15-07-2019 03:47 5 90 13.4 1015.4 6.1 9.7 W 1016.1 11.8 13.4 0.0
15-07-2019 03:52 5 90 13.4 1015.4 8.6 12.2 SW 1016.1 11.8 11.7 0.0
15-07-2019 03:57 5 90 13.4 1015.4 8.6 13.3 SW 1016.1 11.8 11.7 0.0
15-07-2019 04:02 5 89 13.4 1015.4 9.7 14.8 W 1016.1 11.6 11.2 0.0
15-07-2019 04:07 5 90 13.4 1015.3 6.1 9.7 SW 1016.0 11.8 13.4 0.0
15-07-2019 04:12 5 90 13.4 1015.4 8.6 13.3 SW 1016.1 11.8 11.7 0.0
15-07-2019 04:17 5 90 13.4 1015.3 7.2 11.2 W 1016.0 11.8 12.4 0.0
15-07-2019 04:22 5 90 13.4 1015.2 6.1 9.7 W 1015.9 11.8 13.4 0.0
15-07-2019 04:27 5 90 13.4 1015.3 7.2 9.7 W 1016.0 11.8 12.4 0.0
15-07-2019 04:32 5 90 13.4 1015.3 8.6 14.8 W 1016.0 11.8 11.7 0.0
15-07-2019 04:37 5 90 13.4 1015.2 7.2 13.3 SW 1015.9 11.8 12.4 0.0
15-07-2019 04:42 5 90 13.3 1015.3 7.2 15.8 SW 1016.0 11.7 12.3 0.0
15-07-2019 04:47 5 90 13.2 1015.3 12.2 18.4 W 1016.0 11.6 9.9 0.0
15-07-2019 04:52 5 90 13.2 1015.3 11.2 13.3 W 1016.0 11.6 10.4 0.0
15-07-2019 04:57 5 91 13.2 1015.3 3.6 6.1 W 1016.0 11.8 13.2 0.0
15-07-2019 05:02 5 91 13.1 1015.2 8.6 12.2 W 1015.9 11.7 11.4 0.0
15-07-2019 05:07 5 91 13.1 1015.3 8.6 18.4 W 1016.0 11.7 11.4 0.0
15-07-2019 05:12 5 91 13.0 1015.1 8.6 14.8 SW 1015.8 11.6 11.3 0.0
15-07-2019 05:17 5 92 13.0 1015.1 5.0 7.2 W 1015.8 11.7 13.0 0.0
15-07-2019 05:22 5 91 12.9 1015.1 7.2 11.2 SW 1015.8 11.5 11.9 0.0
15-07-2019 05:27 5 91 12.9 1015.2 8.6 14.8 W 1015.9 11.5 11.2 0.0
15-07-2019 05:32 5 91 12.9 1015.1 14.8 18.4 W 1015.8 11.5 8.7 0.0
15-07-2019 05:37 5 90 13.0 1015.1 9.7 15.8 W 1015.8 11.4 10.7 0.0
15-07-2019 05:42 5 91 12.9 1015.2 5.0 7.2 W 1015.9 11.5 12.9 0.0
15-07-2019 05:47 5 90 12.9 1015.0 7.2 11.2 W 1015.7 11.3 11.9 0.0
15-07-2019 05:52 5 90 12.9 1015.1 6.1 11.2 W 1015.8 11.3 12.9 0.0
15-07-2019 05:57 5 89 12.9 1015.1 12.2 17.3 W 1015.8 11.1 9.6 0.0
15-07-2019 06:02 5 88 12.9 1015.0 11.2 17.3 W 1015.7 11.0 10.0 0.0
15-07-2019 06:07 5 87 12.9 1015.0 7.2 13.3 SW 1015.7 10.8 11.9 0.0
15-07-2019 06:12 5 86 12.9 1015.1 6.1 9.7 W 1015.8 10.6 12.9 0.0
15-07-2019 06:17 5 85 12.9 1015.0 8.6 14.8 SW 1015.7 10.5 11.2 0.0
15-07-2019 06:22 5 84 12.9 1015.1 8.6 14.8 SW 1015.8 10.3 11.2 0.0
15-07-2019 06:27 5 84 12.9 1015.1 6.1 12.2 W 1015.8 10.3 12.9 0.0
15-07-2019 06:32 5 83 13.0 1015.1 8.6 14.8 SW 1015.8 10.2 11.3 0.0
15-07-2019 06:37 5 83 13.0 1015.1 9.7 13.3 W 1015.8 10.2 10.7 0.0
15-07-2019 06:42 5 83 13.0 1015.0 8.6 13.3 W 1015.7 10.2 11.3 0.0
15-07-2019 06:47 5 82 13.0 1014.9 8.6 13.3 W 1015.6 10.0 11.3 0.0
15-07-2019 06:52 5 83 13.0 1014.9 8.6 13.3 W 1015.6 10.2 11.3 0.0
15-07-2019 06:57 5 81 13.1 1014.9 12.2 17.3 W 1015.6 9.9 9.8 0.0
15-07-2019 07:02 5 79 13.2 1014.8 12.2 19.4 W 1015.5 9.7 9.9 0.0
15-07-2019 07:07 5 79 13.3 1015.0 12.2 22.0 SW 1015.7 9.8 10.1 0.0
15-07-2019 07:12 5 79 13.3 1014.9 7.2 13.3 W 1015.6 9.8 12.3 0.0
15-07-2019 07:17 5 78 13.3 1015.0 7.2 15.8 SW 1015.7 9.6 12.3 0.0
15-07-2019 07:22 5 77 13.3 1014.9 8.6 15.8 SW 1015.6 9.4 11.6 0.0
15-07-2019 07:27 5 77 13.4 1015.0 15.8 23.4 SW 1015.7 9.5 9.0 0.0
15-07-2019 07:32 5 77 13.4 1015.0 11.2 18.4 W 1015.7 9.5 10.6 0.0
15-07-2019 07:37 5 77 13.4 1015.1 14.8 19.4 W 1015.8 9.5 9.3 0.0
15-07-2019 07:42 5 77 13.4 1015.1 11.2 24.5 W 1015.8 9.5 10.6 0.0
15-07-2019 07:47 5 76 13.4 1015.0 13.3 18.4 SW 1015.7 9.3 9.8 0.0
15-07-2019 07:52 5 77 13.4 1015.0 9.7 17.3 SW 1015.7 9.5 11.2 0.0
15-07-2019 07:57 5 77 13.5 1015.2 11.2 15.8 W 1015.9 9.6 10.7 0.0
15-07-2019 08:02 5 77 13.5 1015.3 7.2 14.8 W 1016.0 9.6 12.5 0.0
15-07-2019 08:07 5 76 13.5 1015.2 9.7 15.8 W 1015.9 9.4 11.3 0.0
15-07-2019 08:12 5 76 13.5 1015.3 8.6 13.3 W 1016.0 9.4 11.8 0.0
15-07-2019 08:17 5 75 13.6 1015.3 14.8 22.0 W 1016.0 9.3 9.6 0.0
15-07-2019 08:22 5 76 13.6 1015.2 9.7 13.3 SW 1015.9 9.5 11.4 0.0
15-07-2019 08:27 5 76 13.6 1015.2 11.2 20.9 SW 1015.9 9.5 10.8 0.0
15-07-2019 08:32 5 75 13.7 1015.3 13.3 18.4 SW 1016.0 9.4 10.1 0.0
15-07-2019 08:37 5 75 13.7 1015.2 12.2 15.8 W 1015.9 9.4 10.5 0.0
15-07-2019 08:42 5 74 13.8 1015.3 12.2 17.3 W 1016.0 9.3 10.6 0.0
15-07-2019 08:47 5 74 13.8 1015.2 15.8 18.4 W 1015.9 9.3 9.5 0.0
15-07-2019 08:52 5 74 13.8 1015.3 11.2 17.3 SW 1016.0 9.3 11.0 0.0
15-07-2019 08:57 5 73 13.8 1015.4 13.3 18.4 W 1016.1 9.1 10.3 0.0
15-07-2019 09:02 5 74 13.9 1015.3 13.3 22.0 W 1016.0 9.4 10.4 0.0
15-07-2019 09:07 5 73 14.0 1015.3 12.2 19.4 W 1016.0 9.3 10.9 0.0
15-07-2019 09:12 5 73 14.1 1015.4 9.7 12.2 W 1016.1 9.4 12.0 0.0
15-07-2019 09:17 5 74 14.0 1015.4 7.2 12.2 W 1016.1 9.5 13.1 0.0
15-07-2019 09:22 5 73 14.0 1015.5 12.2 15.8 SW 1016.2 9.3 10.9 0.0
15-07-2019 09:27 5 74 13.9 1015.3 9.7 13.3 SW 1016.0 9.4 11.7 0.0
15-07-2019 09:32 5 75 14.0 1015.4 9.7 15.8 SW 1016.1 9.7 11.9 0.0
15-07-2019 09:37 5 74 13.9 1015.4 9.7 18.4 SW 1016.1 9.4 11.7 0.0
15-07-2019 09:42 5 74 13.9 1015.4 13.3 18.4 W 1016.1 9.4 10.4 0.0
15-07-2019 09:47 5 75 13.9 1015.5 14.8 18.4 SW 1016.2 9.6 9.9 0.0
15-07-2019 09:52 5 75 13.8 1015.5 12.2 19.4 SW 1016.2 9.5 10.6 0.0
15-07-2019 09:57 5 75 13.8 1015.5 15.8 19.4 W 1016.2 9.5 9.5 0.0
15-07-2019 10:02 5 75 13.9 1015.5 13.3 17.3 W 1016.2 9.6 10.4 0.0
15-07-2019 10:07 5 75 14.0 1015.4 11.2 15.8 W 1016.1 9.7 11.3 0.0
15-07-2019 10:12 5 73 14.1 1015.5 12.2 20.9 SW 1016.2 9.4 11.0 0.0
15-07-2019 10:17 5 72 14.1 1015.5 17.3 24.5 SW 1016.2 9.1 9.5 0.0
15-07-2019 10:22 5 73 14.1 1015.5 9.7 14.8 W 1016.2 9.4 12.0 0.0
15-07-2019 10:27 5 73 14.2 1015.5 14.8 18.4 W 1016.2 9.4 10.3 0.0
15-07-2019 10:32 5 72 14.3 1015.5 12.2 14.8 W 1016.2 9.3 11.2 0.0
15-07-2019 10:37 5 71 14.4 1015.4 13.3 17.3 W 1016.1 9.2 11.0 0.0
15-07-2019 10:42 5 69 14.4 1015.4 20.9 25.6 SW 1016.1 8.8 9.0 0.0
15-07-2019 10:47 5 70 14.4 1015.3 14.8 25.6 W 1016.0 9.0 10.5 0.0
15-07-2019 10:52 5 70 14.5 1015.4 18.4 23.4 W 1016.1 9.1 9.7 0.0
15-07-2019 10:57 5 69 14.5 1015.5 20.9 29.5 W 1016.2 8.9 9.1 0.0
15-07-2019 11:02 5 70 14.5 1015.3 12.2 17.3 SW 1016.0 9.1 11.5 0.0
15-07-2019 11:07 5 70 14.6 1015.3 8.6 18.4 SW 1016.0 9.2 13.0 0.0
15-07-2019 11:12 5 68 14.7 1015.3 15.8 24.5 SW 1016.0 8.9 10.6 0.0
15-07-2019 11:17 5 68 14.8 1015.3 24.5 29.5 W 1016.0 9.0 8.8 0.0
15-07-2019 11:22 5 66 15.0 1015.4 20.9 25.6 W 1016.1 8.7 9.8 0.0
15-07-2019 11:27 5 67 15.1 1015.4 14.8 23.4 SW 1016.1 9.0 11.4 0.0
15-07-2019 11:32 5 67 15.2 1015.3 14.8 20.9 W 1016.0 9.1 11.5 0.0
15-07-2019 11:37 5 66 15.2 1015.3 18.4 24.5 W 1016.0 8.9 10.6 0.0
15-07-2019 11:42 5 66 15.1 1015.3 20.9 31.7 W 1016.0 8.8 9.9 0.0
15-07-2019 11:47 5 67 15.3 1015.4 12.2 19.4 SW 1016.1 9.2 12.4 0.0
15-07-2019 11:52 5 64 15.4 1015.4 15.8 20.9 W 1016.1 8.6 11.4 0.0
15-07-2019 11:57 5 63 15.4 1015.3 14.8 19.4 W 1016.0 8.4 11.7 0.0
15-07-2019 12:02 5 65 15.6 1015.3 7.2 14.8 SW 1016.0 9.1 14.7 0.0
15-07-2019 12:07 5 63 16.1 1015.2 9.7 19.4 W 1015.9 9.1 14.2 0.0
15-07-2019 12:12 5 62 16.1 1015.1 20.9 31.7 W 1015.8 8.8 11.2 0.0
15-07-2019 12:17 5 64 16.1 1015.1 14.8 22.0 SW 1015.8 9.3 12.6 0.0
15-07-2019 12:22 5 64 16.1 1015.2 15.8 20.9 W 1015.9 9.3 12.3 0.0
15-07-2019 12:27 5 64 15.9 1015.0 15.8 23.4 W 1015.7 9.1 12.1 0.0
15-07-2019 12:32 5 63 16.0 1015.2 22.0 30.6 W 1015.9 9.0 10.8 0.0
15-07-2019 12:37 5 64 16.2 1015.1 18.4 25.6 W 1015.8 9.4 11.8 0.0
15-07-2019 12:42 5 61 16.2 1015.1 19.4 27.0 W 1015.8 8.7 11.6 0.0
15-07-2019 12:47 5 64 16.3 1015.1 15.8 24.5 W 1015.8 9.5 12.5 0.0
15-07-2019 12:52 5 65 16.1 1015.1 18.4 24.5 SW 1015.8 9.5 11.7 0.0
15-07-2019 12:57 5 65 15.8 1015.1 22.0 27.0 W 1015.8 9.3 10.6 0.0
15-07-2019 13:02 5 64 15.9 1015.0 13.3 23.4 SW 1015.7 9.1 12.8 0.0
15-07-2019 13:07 5 65 16.4 1015.1 14.8 19.4 W 1015.8 9.8 12.9 0.0
15-07-2019 13:12 5 65 16.4 1015.0 13.3 22.0 W 1015.7 9.8 13.3 0.0
15-07-2019 13:17 5 65 16.3 1015.0 19.4 22.0 W 1015.7 9.7 11.7 0.0
15-07-2019 13:22 5 63 16.3 1014.8 18.4 25.6 SW 1015.5 9.3 12.0 0.0
15-07-2019 13:27 5 64 16.3 1015.0 15.8 22.0 W 1015.7 9.5 12.5 0.0
15-07-2019 13:32 5 64 16.3 1015.1 17.3 34.2 SW 1015.8 9.5 12.2 0.0
15-07-2019 13:37 5 65 16.1 1015.1 25.6 41.8 W 1015.8 9.5 10.4 0.0
15-07-2019 13:42 5 65 16.1 1015.0 15.8 27.0 W 1015.7 9.5 12.3 0.0
15-07-2019 13:47 5 64 16.2 1015.1 19.4 29.5 W 1015.8 9.4 11.6 0.0
15-07-2019 13:52 5 64 16.3 1015.0 14.8 19.4 SW 1015.7 9.5 12.8 0.0
15-07-2019 13:57 5 63 16.4 1014.9 25.6 36.7 W 1015.6 9.4 10.8 0.0
15-07-2019 14:02 5 65 16.4 1014.9 17.3 25.6 W 1015.6 9.8 12.3 0.0
15-07-2019 14:07 5 62 16.5 1014.7 24.5 30.6 W 1015.4 9.2 11.1 0.0
15-07-2019 14:12 5 61 16.6 1014.7 25.6 31.7 W 1015.4 9.1 11.0 0.0
15-07-2019 14:17 5 63 16.9 1014.8 15.8 28.1 SW 1015.5 9.8 13.3 0.0
15-07-2019 14:22 5 62 16.9 1014.7 20.9 27.0 W 1015.4 9.6 12.2 0.0
15-07-2019 14:27 5 63 16.9 1014.7 19.4 24.5 W 1015.4 9.8 12.5 0.0
15-07-2019 14:32 5 62 16.8 1014.8 13.3 19.4 SW 1015.5 9.5 13.8 0.0
15-07-2019 14:37 5 62 16.8 1014.8 20.9 30.6 W 1015.5 9.5 12.1 0.0
15-07-2019 14:42 5 63 16.9 1014.5 18.4 24.5 W 1015.2 9.8 12.7 0.0
15-07-2019 14:47 5 64 17.1 1014.7 15.8 27.0 W 1015.4 10.3 13.5 0.0
15-07-2019 14:52 5 65 16.9 1014.7 14.8 20.9 W 1015.4 10.3 13.5 0.0
15-07-2019 14:57 5 61 17.0 1014.7 19.4 30.6 W 1015.4 9.4 12.6 0.0
15-07-2019 15:02 5 61 17.1 1014.6 17.3 29.5 W 1015.3 9.5 13.2 0.0
15-07-2019 15:07 5 61 17.3 1014.5 19.4 27.0 W 1015.2 9.7 13.0 0.0
15-07-2019 15:12 5 61 17.4 1014.6 17.3 23.4 W 1015.3 9.8 13.6 0.0
15-07-2019 15:17 5 60 17.5 1014.5 19.4 34.2 W 1015.2 9.7 13.3 0.0
15-07-2019 15:22 5 61 17.4 1014.7 20.9 27.0 W 1015.4 9.8 12.9 0.0
15-07-2019 15:27 5 62 17.3 1014.5 17.3 23.4 SW 1015.2 10.0 13.4 0.0
15-07-2019 15:32 5 61 17.2 1014.6 20.9 27.0 W 1015.3 9.6 12.6 0.0
15-07-2019 15:37 5 59 17.4 1014.5 19.4 24.5 W 1015.2 9.3 13.1 0.0
15-07-2019 15:42 5 59 17.5 1014.4 27.0 41.8 W 1015.1 9.4 12.1 0.0
15-07-2019 15:47 5 61 17.4 1014.5 17.3 28.1 W 1015.2 9.8 13.6 0.0
15-07-2019 15:52 5 59 17.4 1014.4 20.9 35.6 SW 1015.1 9.3 12.9 0.0
15-07-2019 15:57 5 60 17.4 1014.3 27.0 31.7 W 1015.0 9.6 11.9 0.0
15-07-2019 16:02 5 61 17.4 1014.2 19.4 25.6 W 1014.9 9.8 13.1 0.0
15-07-2019 16:07 5 60 17.2 1014.2 22.0 36.7 SW 1014.9 9.4 12.4 0.0
15-07-2019 16:12 5 59 17.3 1014.3 29.5 49.0 W 1015.0 9.2 11.5 0.0
15-07-2019 16:17 5 60 17.5 1014.2 18.4 27.0 W 1014.9 9.7 13.5 0.0
15-07-2019 16:22 5 60 17.6 1014.3 17.3 37.8 W 1015.0 9.8 13.8 0.0
15-07-2019 16:27 5 59 17.4 1014.2 18.4 30.6 W 1014.9 9.3 13.3 0.0
15-07-2019 16:32 5 61 17.4 1014.2 13.3 20.9 SW 1014.9 9.8 14.5 0.0
15-07-2019 16:37 5 59 17.4 1014.1 22.0 31.7 W 1014.8 9.3 12.7 0.0
15-07-2019 16:42 5 60 17.4 1014.2 13.3 19.4 W 1014.9 9.6 14.5 0.0
15-07-2019 16:47 5 60 17.6 1014.2 17.3 22.0 W 1014.9 9.8 13.8 0.0
15-07-2019 16:52 5 59 17.5 1014.1 18.4 23.4 W 1014.8 9.4 13.5 0.0
15-07-2019 16:57 5 60 17.5 1014.1 20.9 27.0 W 1014.8 9.7 13.0 0.0
15-07-2019 17:02 5 59 17.5 1014.0 17.3 25.6 W 1014.7 9.4 13.7 0.0
15-07-2019 17:07 5 60 17.5 1014.0 25.6 33.1 W 1014.7 9.7 12.2 0.0
15-07-2019 17:12 5 58 17.6 1014.1 29.5 36.7 W 1014.8 9.3 11.9 0.0
15-07-2019 17:17 5 60 17.4 1014.0 24.5 29.5 W 1014.7 9.6 12.3 0.0
15-07-2019 17:22 5 61 17.4 1014.1 19.4 27.0 NW 1014.8 9.8 13.1 0.0
15-07-2019 17:27 5 62 17.1 1014.0 19.4 27.0 W 1014.7 9.8 12.7 0.0
15-07-2019 17:32 5 62 17.1 1014.0 24.5 30.6 W 1014.7 9.8 11.9 0.0
15-07-2019 17:37 5 62 17.1 1013.9 22.0 30.6 W 1014.6 9.8 12.3 0.0
15-07-2019 17:42 5 60 17.3 1013.9 22.0 25.6 W 1014.6 9.5 12.5 0.0
15-07-2019 17:47 5 59 17.3 1014.0 29.5 36.7 W 1014.7 9.2 11.5 0.0
15-07-2019 17:52 5 59 17.2 1014.0 22.0 29.5 W 1014.7 9.1 12.4 0.0
15-07-2019 17:57 5 59 17.2 1013.8 23.4 29.5 W 1014.5 9.1 12.2 0.0
15-07-2019 18:02 5 59 17.2 1013.9 25.6 31.7 W 1014.6 9.1 11.8 0.0
15-07-2019 18:07 5 60 17.1 1013.8 24.5 31.7 W 1014.5 9.3 11.9 0.0
15-07-2019 18:12 5 61 17.0 1013.9 20.9 25.6 W 1014.6 9.4 12.3 0.0
15-07-2019 18:17 5 61 17.0 1013.9 18.4 25.6 W 1014.6 9.4 12.8 0.0
15-07-2019 18:22 5 63 17.1 1014.0 23.4 34.2 W 1014.7 10.0 12.0 0.0
15-07-2019 18:27 5 63 16.7 1013.8 25.6 34.2 W 1014.5 9.6 11.2 0.0
15-07-2019 18:32 5 65 16.6 1013.8 12.2 19.4 W 1014.5 10.0 13.9 0.0
15-07-2019 18:37 5 64 16.6 1013.8 23.4 31.7 W 1014.5 9.8 11.4 0.0
15-07-2019 18:42 5 63 16.6 1013.8 25.6 31.7 W 1014.5 9.5 11.0 0.0
15-07-2019 18:47 5 62 16.6 1013.8 22.0 34.2 W 1014.5 9.3 11.6 0.0
15-07-2019 18:52 5 62 16.7 1013.8 18.4 25.6 W 1014.5 9.4 12.5 0.0
15-07-2019 18:57 5 63 16.6 1013.9 18.4 23.4 W 1014.6 9.5 12.3 0.0
15-07-2019 19:02 5 63 16.5 1013.9 25.6 39.2 W 1014.6 9.5 10.9 0.0
15-07-2019 19:07 5 64 16.4 1013.9 27.0 34.2 W 1014.6 9.6 10.6 0.0
15-07-2019 19:12 5 64 16.2 1014.1 24.5 33.1 W 1014.8 9.4 10.7 0.0
15-07-2019 19:17 5 64 16.2 1013.9 22.0 27.0 W 1014.6 9.4 11.1 0.0
15-07-2019 19:22 5 63 16.2 1013.8 27.0 31.7 W 1014.5 9.2 10.3 0.0
15-07-2019 19:27 5 63 16.1 1013.9 28.1 40.3 W 1014.6 9.1 10.0 0.0
15-07-2019 19:32 5 64 16.0 1014.0 17.3 25.6 W 1014.7 9.2 11.8 0.0
15-07-2019 19:37 5 64 16.0 1013.8 23.4 30.6 W 1014.5 9.2 10.6 0.0
15-07-2019 19:42 5 64 16.0 1013.8 18.4 22.0 W 1014.5 9.2 11.6 0.0
15-07-2019 19:47 5 65 16.0 1013.7 17.3 25.6 W 1014.4 9.4 11.8 0.0
15-07-2019 19:52 5 65 16.0 1013.7 18.4 23.4 W 1014.4 9.4 11.6 0.0
15-07-2019 19:57 5 64 16.0 1013.8 18.4 27.0 W 1014.5 9.2 11.6 0.0
15-07-2019 20:02 5 64 16.0 1013.9 22.0 29.5 W 1014.6 9.2 10.8 0.0
15-07-2019 20:07 5 65 16.0 1013.7 28.1 35.6 W 1014.4 9.4 9.9 0.0
15-07-2019 20:12 5 65 15.9 1013.8 18.4 22.0 W 1014.5 9.3 11.5 0.0
15-07-2019 20:17 5 65 15.9 1013.8 15.8 20.9 W 1014.5 9.3 12.1 0.0
15-07-2019 20:22 5 65 15.9 1013.6 18.4 24.5 W 1014.3 9.3 11.5 0.0
15-07-2019 20:27 5 66 15.9 1013.7 22.0 29.5 W 1014.4 9.6 10.7 0.0
15-07-2019 20:32 5 67 15.9 1013.7 13.3 19.4 W 1014.4 9.8 12.8 0.0
15-07-2019 20:37 5 66 15.8 1013.7 12.2 19.4 W 1014.4 9.5 13.0 0.0
15-07-2019 20:42 5 66 15.8 1013.7 13.3 22.0 W 1014.4 9.5 12.6 0.0
15-07-2019 20:47 5 67 15.8 1013.7 18.4 31.7 W 1014.4 9.7 11.3 0.0
15-07-2019 20:52 5 67 15.8 1013.6 18.4 20.9 W 1014.3 9.7 11.3 0.0
15-07-2019 20:57 5 68 15.8 1013.7 13.3 19.4 W 1014.4 9.9 12.6 0.0
15-07-2019 21:02 5 68 15.7 1013.5 15.8 23.4 W 1014.2 9.8 11.8 0.0
15-07-2019 21:07 5 69 15.7 1013.7 17.3 23.4 SW 1014.4 10.0 11.4 0.0
15-07-2019 21:12 5 69 15.7 1013.7 20.9 30.6 W 1014.4 10.0 10.7 0.0
15-07-2019 21:17 5 69 15.7 1013.6 12.2 18.4 SW 1014.3 10.0 12.9 0.0
15-07-2019 21:22 5 69 15.6 1013.6 9.7 17.3 SW 1014.3 10.0 13.6 0.0
15-07-2019 21:27 5 70 15.6 1013.5 7.2 14.8 W 1014.2 10.2 14.7 0.0
15-07-2019 21:32 5 70 15.6 1013.6 12.2 18.4 W 1014.3 10.2 12.7 0.0
15-07-2019 21:37 5 70 15.6 1013.5 17.3 20.9 W 1014.2 10.2 11.3 0.0
15-07-2019 21:42 5 71 15.6 1013.4 6.1 9.7 W 1014.1 10.4 15.6 0.0
15-07-2019 21:47 5 72 15.5 1013.5 22.0 30.6 W 1014.2 10.5 10.2 0.0
15-07-2019 21:52 5 72 15.5 1013.6 20.9 28.1 W 1014.3 10.5 10.4 0.0
15-07-2019 21:57 5 72 15.5 1013.5 14.8 23.4 SW 1014.2 10.5 11.9 0.0
15-07-2019 22:02 5 73 15.5 1013.4 11.2 17.3 W 1014.1 10.7 13.0 0.0
15-07-2019 22:07 5 73 15.4 1013.4 15.8 20.9 W 1014.1 10.6 11.4 0.0
15-07-2019 22:12 5 73 15.4 1013.6 11.2 14.8 W 1014.3 10.6 12.9 0.0
15-07-2019 22:17 5 74 15.4 1013.5 14.8 25.6 W 1014.2 10.8 11.7 0.0
15-07-2019 22:22 5 74 15.3 1013.3 17.3 23.4 W 1014.0 10.7 11.0 0.0
15-07-2019 22:27 5 74 15.3 1013.5 14.8 22.0 W 1014.2 10.7 11.6 0.0
15-07-2019 22:32 5 74 15.3 1013.6 14.8 19.4 W 1014.3 10.7 11.6 0.0
15-07-2019 22:37 5 74 15.3 1013.4 20.9 24.5 W 1014.1 10.7 10.2 0.0
15-07-2019 22:42 5 74 15.3 1013.6 22.0 28.1 W 1014.3 10.7 9.9 0.0
15-07-2019 22:47 5 74 15.3 1013.4 22.0 25.6 W 1014.1 10.7 9.9 0.0
15-07-2019 22:52 5 74 15.3 1013.4 15.8 25.6 W 1014.1 10.7 11.3 0.0
15-07-2019 22:57 5 75 15.3 1013.3 9.7 14.8 SW 1014.0 10.9 13.3 0.0
15-07-2019 23:02 5 75 15.2 1013.4 15.8 23.4 W 1014.1 10.8 11.2 0.0
15-07-2019 23:07 5 75 15.1 1013.4 17.3 25.6 W 1014.1 10.7 10.7 0.0
15-07-2019 23:12 5 75 15.1 1013.3 13.3 17.3 W 1014.0 10.7 11.8 0.0
15-07-2019 23:17 5 75 15.1 1013.3 14.8 20.9 W 1014.0 10.7 11.4 0.0
15-07-2019 23:22 5 76 15.1 1013.2 11.2 15.8 W 1013.9 10.9 12.5 0.0
15-07-2019 23:27 5 76 15.0 1013.2 15.8 19.4 W 1013.9 10.8 11.0 0.0
15-07-2019 23:32 5 76 15.0 1013.1 18.4 25.6 W 1013.8 10.8 10.3 0.0
15-07-2019 23:37 5 77 15.0 1013.2 11.2 18.4 SW 1013.9 11.0 12.4 0.0
15-07-2019 23:42 5 77 14.9 1013.1 8.6 14.8 SW 1013.8 10.9 13.3 0.0
15-07-2019 23:47 5 77 14.9 1013.1 13.3 19.4 W 1013.8 10.9 11.6 0.0
15-07-2019 23:52 5 77 14.9 1013.1 17.3 23.4 W 1013.8 10.9 10.5 0.0
15-07-2019 23:57 5 77 14.8 1013.2 11.2 15.8 W 1013.9 10.8 12.2 0.0

                                                                                Tabelle: 08 : 00 UHR

STATIONHÖHELUFTD.TEMP.T-MinT-MaxU%RR1RR12SSSDDFFFXWetter+WolkenBöen
UFS TW Ems 0 ------ --- --- --- --- ---- --- --- -- --- --- --- ---
UFS Deutsche Bucht 0 1017.9 13.7 13.1 14.4 75 ---- --- --- -- 29 --- --- ---
Helgoland 4 1017.7 13.6 13.4 14.3 70 0.0 0 --- -- --- ---   ---
List/Sylt 26 1016.0 13.1 12.9 14.2 72 0.0 0 0 -- --- ---   ---
Schleswig 43 1016.2 13.1 12.5 14.6 76 0.0 0 0 W 19 31 stark bewölkt ---
Leuchtturm Kiel 5 1015.8 13.3 13.0 15.5 72 ---- --- --- W 30 43 --- ---
Kiel 27 1016.2 13.1 12.5 14.9 76 0.0 0 --- W 11 22 --- ---
Fehmarn 3 1015.5 14.1 13.7 16.4 72 0.0 0 --- W 31 39   ---
Arkona 42 1014.9 14.2 14.0 16.0 96 0.2 0 --- SW 17 29 leichter Regen ---
Norderney 11 1018.5 13.9 13.4 15.2 72 0.0 0 --- NW 28 36 --- ---
Leuchtt. Alte Weser 32 1017.6 13.6 13.4 14.7 75 ---- --- --- W 29 --- --- ---
Cuxhaven 5 1017.4 14.0 13.7 15.2 76 0.0 0 --- W 17 32 --- ---
Hamburg-Flh. 11 1017.1 13.4 13.2 15.1 76 0.0 0 0 W 9 15 leichter Regen ---
Schwerin 59 1016.7 12.8 12.7 15.8 77 0.0 0 --- W 12 25 --- ---
Rostock 4 1015.8 14.1 13.3 16.8 78 0.0 0 --- W 15 29 --- ---
Greifswald 2 1015.7 15.0 14.2 17.8 81 0.0 0 0 W 10 21 leichter Regen ---
Emden 0 1018.8 13.3 13.0 14.9 78 0.0 0 --- W 9 19 --- ---
Bremen-Flh. 5 1018.4 13.4 13.2 16.0 80 0.0 0 0 W 14 27 Regen ---
Lüchow 17 1017.5 13.4 12.8 16.6 82 0.0 0 --- W 9 14 --- ---
Marnitz 81 1016.7 12.5 12.1 16.5 87 0.0 0 --- NW 7 18 --- ---
Waren 70 1016.1 13.2 12.8 17.3 87 0.0 0 --- W 8 17 --- ---
Neuruppin 38 1016.7 13.9 13.5 17.5 85 0.0 0 --- W 9 20 --- ---
Angermünde 56 1016.2 15.6 15.0 19.0 77 0.0 2 0 W 9 15 --- ---
Münster/Osnabr.-Flh. 48 1019.5 13.5 13.4 16.7 84 0.0 0 0 NW 8 17 bedeckt ---
Hannover-Flh. 59 1018.5 13.2 12.7 15.8 82 0.0 0 0 NW 13 21 bedeckt ---
Magdeburg 76 1018.0 13.4 13.1 16.8 88 0.0 0 --- NW 3 17 leichter Regen ---
Potsdam 81 1016.9 14.5 13.7 18.1 79 0.0 0 0 W 12 19 bedeckt ---
Berlin-Tegel 37 1016.8 14.7 14.5 18.7 79 0.0 0 0 W 14 23 bedeckt ---
Berlin-Tempelhof 48 1016.9 15.2 15.0 19.3 73 0.0 0 --- NW 17 24 --- ---
Berlin-Dahlem 51 1016.6 14.7 14.1 18.7 --- ---- 0 0 NW 11 --- bedeckt ---
Lindenberg 91 1016.4 15.3 15.0 19.5 78 0.0 0 0 NW 9 17 bedeckt ---
Düsseldorf-Flh. 45 1020.0 13.0 8.9 18.0 87 0.0 0 0 NW 2 4 stark bewölkt ---
Essen 150 1020.0 12.9 11.2 16.9 81 0.0 0 --- N 5 11 --- ---
Kahler Asten 839 ------ 8.0 7.8 9.6 94 0.0 0 --- NW 9 18 --- ---
Bad Lippspringe 157 1019.1 12.8 12.3 15.4 88 0.0 0 --- W 4 8 --- ---
Fritzlar 174 1018.9 13.6 13.5 15.2 82 ---- 0 0 NW 11 --- bedeckt ---
Brocken 1142 ------ 6.0 5.8 7.5 99 ---- 1 0 W 22 31 Nebel ---
Leipzig-Flh. 142 1017.7 14.9 13.7 18.0 76 0.0 0 0 NW 9 15 bedeckt ---
Dresden-Flh. 227 1017.4 14.0 12.8 18.8 86 0.0 0 0 NW 8 12 bedeckt ---
Cottbus 69 1016.6 16.1 14.9 19.9 75 0.0 0 --- W 6 16 --- ---
Görlitz 238 1016.6 14.5 13.4 20.0 88 0.0 0 --- W 10 19 --- ---
Aachen 231 1020.5 11.3 9.5 16.2 94 0.0 0 --- W 4 7 --- ---
Nürburg 485 1019.6 11.2 11.1 14.3 89 0.0 0 --- N 10 16 Dunst oder flacher Nebel ---
Köln/Bonn-Flh. 92 1019.7 13.9 13.2 17.3 79 0.0 0 0 N 12 18 stark bewölkt ---
Gießen/Wettenberg 203 1018.7 15.2 13.6 16.0 72 0.0 0 --- NO 9 15 --- ---
Wasserkuppe 921 ------ 9.5 7.6 9.8 92 0.0 0 0 NO 10 18 Nebel ---
Meiningen 450 1018.4 11.7 9.4 14.4 86 0.0 0 --- N 11 18 wolkenlos ---
Erfurt 316 1018.0 13.4 12.8 16.3 84 0.0 0 0 - 0 4 bedeckt ---
Gera 311 1017.8 13.8 13.3 16.4 82 0.0 0 --- N 6 10 --- ---
Fichtelberg 1213 ------ 8.3 7.9 8.9 97 ---- --- --- NW 14 21 Nebel ---
Trier 265 1018.8 14.2 12.5 17.2 79 0.0 0 --- N 6 10 --- ---
Hahn-Flh. 497 1018.8 11.9 10.9 14.8 78 0.0 0 --- NO 13 23 --- ---
Frankfurt/M-Flh. 112 1018.2 15.9 15.0 18.3 70 0.0 0 0 NO 15 23 stark bewölkt ---
OF-Wetterpark 119 1018.2 15.2 12.9 17.4 76 0.0 0 --- N 9 17 --- ---
Würzburg 268 1017.8 14.6 11.3 19.1 76 0.0 0 --- NO 8 18 wolkenlos ---
Bamberg 239 1017.3 13.6 11.5 20.9 84 0.0 0 --- NW 7 17 --- ---
Hof 567 1017.7 11.7 10.9 14.5 95 0.0 0 --- N 7 10 Dunst oder flacher Nebel ---
Weiden 438 1016.6 14.1 10.7 17.4 79 0.0 0 --- NO 8 15 wolkenlos ---
Saarbrücken-Flh. 320 1018.2 13.8 9.2 17.6 72 0.0 0 0 N 10 18 heiter ---
Karlsruhe-Rheinst. 116 1017.3 14.7 10.7 19.6 79 0.0 0 --- NO 13 16 wolkenlos ---
Mannheim 96 1017.8 14.8 12.4 18.9 77 0.0 0 --- N 13 26 --- ---
Stuttgart-Flh. 371 1016.7 13.1 12.2 17.4 85 0.0 0 --- NW 10 17 stark bewölkt ---
Öhringen 276 1017.1 13.2 9.6 19.4 84 0.0 0 --- N 6 11 --- ---
Nürnberg-Flh. 314 1016.9 14.1 12.0 20.1 86 0.0 0 0 N 8 11 bewölkt ---
Regensburg 366 1016.1 14.0 12.4 19.4 89 0.0 0 --- N 7 14 --- ---
Straubing 351 1015.6 15.5 10.5 18.7 87 0.0 0 --- NO 10 14 --- ---
Großer Arber 1436 ------ 7.7 7.5 9.8 100 0.0 0 --- O 13 24 Nebel ---
Lahr 155 1017.1 14.2 10.8 17.1 82 0.0 0 --- NO 11 17 wolkenlos ---
Freudenstadt 797 ------ 9.6 8.8 12.1 99 0.0 0 --- N 6 19 Nebel ---
Stötten 734 1015.7 12.0 9.7 14.7 90 0.0 0 --- NO 8 14 Nebel ---
Augsburg 462 1015.6 13.8 12.2 18.3 91 0.0 0 --- NO 14 22 --- ---
München-Flh. 444 1015.2 14.2 10.7 17.6 90 0.0 0 0 NO 8 11 Nebel ---
Fürstenzell 476 1016.0 12.4 11.2 15.0 100 0.0 0 --- NO 10 13 Nebel ---
Feldberg/Schw. 1486 ------ 7.6 6.4 7.7 100 0.0 4 0 NO 28 45 Nebel ---
Konstanz 443 1014.6 15.2 14.6 19.3 79 0.0 0 --- NO 11 19 --- ---
Kempten 705 1014.3 13.4 11.5 18.3 88 0.0 0 --- NO 8 15 --- ---
Oberstdorf 806 ------ 12.9 10.9 18.8 83 0.0 0 --- N 2 10 --- ---
Zugspitze 2960 ------ 0.5 -1.6 0.6 89 ---- --- 202 O 26 31 Nebel ---
Hohenpeißenberg 977 ------ 10.2 10.2 15.0 100 0.0 0 --- NO 15 23 Nebel ---

                                                                                               Tabelle: 20 : 00 UHR   

STATIONHÖHELUFTD.TEMP.T-MinT-MaxU%RR1RR12SSSDDFFFXWetter+WolkenBöen
UFS TW Ems 0 ------ --- --- --- --- ---- --- --- -- --- --- --- ---
UFS Deutsche Bucht 26 1017.5 14.3 13.2 14.9 85 ---- --- --- -- 36 --- --- ---
Helgoland 4 1017.0 14.8 13.6 16.2 78 0.0 0 --- -- --- --- leichter Regen ---
List/Sylt 26 1014.8 15.0 13.2 16.2 78 0.0 0 0 -- --- ---   ---
Schleswig 43 1014.5 14.9 13.1 16.9 79 0.0 0 --- W 23 40 --- ---
Leuchtturm Kiel 5 1013.7 15.4 13.3 16.0 77 ---- --- --- W 40 49 --- ---
Kiel 27 1014.2 15.2 13.1 16.9 76 0.0 0 --- W 19 39 --- ---
Fehmarn 3 1013.4 16.2 14.0 16.7 77 0.0 0 --- W 41 50   ---
Arkona 42 1012.9 15.4 14.1 16.6 72 0.0 0 --- W 31 52 --- Windböen
Norderney 11 1018.4 14.9 13.7 16.3 80 0.0 0 --- NW 29 40 --- ---
Leuchtt. Alte Weser 32 1016.9 14.6 13.3 14.9 80 ---- --- --- NW 43 --- --- ---
Cuxhaven 5 1016.7 15.1 13.9 16.7 79 0.0 0 --- W 27 41 --- ---
Hamburg-Flh 11 1015.9 14.9 13.4 16.5 75 0.0 0 0 W 26 40 leichter Regen ---
Schwerin 59 1015.0 15.3 12.8 16.8 66 0.0 0 --- W 20 40 --- ---
Rostock 4 1013.8 16.3 14.0 17.9 64 0.0 0 --- W 19 43 --- ---
Greifswald 2 1013.5 17.3 14.1 19.1 56 0.0 0 0 W 17 32 stark bewölkt ---
Emden 0 1018.6 14.2 13.3 17.6 85 0.0 0 --- W 19 32 leichter Regen ---
Bremen-Flh. 5 1017.6 16.6 13.2 20.1 64 0.0 0 0 NW 29 36 stark bewölkt ---
Lüchow 17 1016.1 16.3 13.4 16.5 62 0.0 0 --- W 12 28 --- ---
Marnitz 81 1015.1 16.0 12.5 16.7 60 0.0 0 --- W 10 37 --- ---
Waren 70 1014.4 16.2 12.5 17.3 62 0.0 0 --- W 15 28 --- ---
Neuruppin 38 1015.2 15.9 12.7 17.1 64 0.0 1 --- W 12 24 --- ---
Angermünde 56 1014.6 16.3 15.1 17.6 63 0.0 0 0 W 16 28 --- ---
Münster/Osnabr.-Flh. 48 1018.0 19.1 13.1 20.0 55 0.0 0 0 W 11 28 heiter ---
Hannover-Flh. 59 1017.1 16.9 13.2 17.7 59 0.0 0 0 W 18 31 bewölkt ---
Magdeburg 76 1016.6 16.1 13.4 17.8 64 0.0 0 --- W 10 22 --- ---
Potsdam 81 1015.6 16.4 13.2 17.7 62 0.0 0 0 W 21 33 stark bewölkt ---
Berlin-Tegel 37 1015.4 17.0 13.9 17.8 58 0.0 0 0 W 17 27 stark bewölkt ---
Berlin-Tempelhof 48 1015.4 17.1 13.6 18.1 56 0.0 0 --- W 20 30 --- ---
Berlin-Dahlem 51 1015.3 16.7 13.0 17.4 --- ---- 0 0 NW 14 --- stark bewölkt ---
Lindenberg 91 1015.3 16.1 14.9 16.4 66 0.0 0 0 W 13 24 stark bewölkt ---
Düsseldorf-Flh. 45 1019.2 17.8 13.0 18.0 57 0.0 0 0 W 10 17 stark bewölkt ---
Essen 150 1019.0 16.8 12.9 17.1 60 0.0 0 --- NW 5 13 --- ---
Kahler Asten 839 ------ 8.4 7.8 10.2 94 0.0 0 --- NW 22 31 Dunst oder flacher Nebel ---
Bad Lippspringe 157 1018.5 15.7 12.7 16.0 66 0.0 0 --- W 12 19 --- ---
Fritzlar 174 1018.8 14.9 13.5 16.3 71 ---- 0 0 NW 7 --- bedeckt ---
Brocken 1142 ------ 5.9 5.9 9.1 98 ---- 0 0 W 46 55 Nebel Windböen
Leipzig-Flh. 142 1016.3 17.5 14.9 20.4 59 0.0 0 0 NW 13 27 stark bewölkt ---
Dresden-Flh. 227 1015.7 17.2 14.0 18.0 66 0.0 0 0 W 9 18 bedeckt ---
Cottbus 69 1015.1 17.4 15.8 18.5 65 0.0 0 --- NW 7 23 --- ---
Görlitz 238 1015.4 16.6 14.5 18.3 69 0.0 0 --- NW 7 15 --- ---
Aachen 231 1019.7 15.5 11.4 15.8 72 0.0 0 --- W 7 14 --- ---
Nürburg 485 1019.7 13.0 10.8 14.4 74 0.0 0 --- N 14 21 --- ---
Köln/Bonn-Flh. 92 1019.5 16.1 13.9 17.3 68 0.0 0 0 N 9 18 stark bewölkt ---
Gießen/Wettenberg 203 1018.4 16.0 14.7 18.7 67 0.0 0 --- NW 16 28 --- ---
Wasserkuppe 921 ------ 11.2 9.5 15.3 85 0.0 0 0 N 19 26 bewölkt ---
Meiningen 450 1017.5 14.3 11.7 18.7 70 0.0 0 --- NW 23 32 --- ---
Erfurt 316 1017.3 15.5 13.2 18.4 68 0.0 0 0 NW 16 27 bewölkt ---
Gera 311 1016.0 17.8 13.9 19.6 59 0.0 0 --- NW 13 25 --- ---
Fichtelberg 1213 ------ 11.3 7.9 13.9 83 ---- --- --- NW 22 28 wolkenlos ---
Trier 265 1018.0 18.8 14.2 21.0 54 0.0 0 --- N 19 31 --- ---
Hahn-Flh. 497 1018.7 14.2 11.9 16.4 69 0.0 0 --- N 14 27 --- ---
Frankfurt/M-Flh. 112 1017.9 18.2 15.8 22.0 60 0.0 0 0 NW 19 31 heiter ---
OF-Wetterpark 119 1017.4 19.1 15.2 22.2 59 0.0 0 --- N 9 24 --- ---
Würzburg 268 1016.1 20.8 14.6 24.2 52 0.0 0 --- N 17 30 --- ---
Bamberg 239 1014.5 22.6 13.6 24.8 44 0.0 0 --- NW 11 23 --- ---
Hof 567 1014.9 18.2 11.7 20.8 60 0.0 0 --- N 13 23 wolkenlos ---
Weiden 438 1013.5 21.8 14.2 24.1 48 0.0 0 --- NO 5 18 Regen ---
Saarbrücken-Flh. 320 1016.7 20.8 13.7 22.3 49 0.0 0 0 NO 12 21 heiter ---
Karlsruhe-Rheinst. 116 1016.5 22.0 14.7 24.1 48 0.0 0 --- N 15 27 --- ---
Mannheim 96 1017.1 20.4 14.8 24.3 54 0.0 0 --- N 24 46 --- ---
Stuttgart-Flh. 371 1015.1 21.4 13.1 22.8 51 0.0 0 --- NW 17 27 heiter ---
Öhringen 276 1015.5 21.8 13.4 24.6 50 0.0 0 --- N 14 23 wolkenlos ---
Nürnberg-Flh. 314 1014.1 22.8 14.1 24.9 42 0.0 0 0 NW 17 27 heiter ---
Regensburg 366 1013.5 22.0 14.1 26.8 47 0.0 0 --- S 5 14 --- ---
Straubing 351 1013.5 22.4 15.4 23.7 44 0.0 0 --- SO 3 5 wolkenlos ---
Großer Arber 1436 ------ 12.6 7.6 15.6 69 0.0 0 --- N 9 17 --- ---
Lahr 155 1015.7 22.3 13.9 23.9 52 0.0 0 --- NO 18 27 wolkenlos ---
Freudenstadt 797 ------ 17.8 9.4 20.0 66 0.0 0 --- N 17 24 --- ---
Stötten 734 1014.9 18.0 11.1 20.6 61 0.0 0 --- NW 15 25 --- ---
Augsburg 462 1014.2 20.0 13.8 23.1 59 0.0 0 --- N 8 14 --- ---
München-Flh. 444 1013.7 21.3 14.1 23.5 54 0.0 0 0 NW 5 13 heiter ---
Fürstenzell 476 1013.7 19.4 12.3 22.9 57 0.0 0 --- S 4 10 wolkenlos ---
Feldberg/Schw. 1486 ------ 10.6 7.5 10.9 100 0.0 0 0 N 18 32 Nebel ---
Konstanz 443 1013.7 22.9 15.1 25.4 48 0.0 0 --- NO 9 23 wolkenlos ---
Kempten 705 1013.6 19.7 13.4 22.1 55 0.0 0 --- N 8 21 --- ---
Oberstdorf 806 ------ 15.8 12.9 19.3 82 0.0 2 --- SO 15 19 --- ---
Zugspitze 2960 ------ 0.8 -0.4 2.2 99 ---- --- --- N 13 26 Nebel ---
Hohenpeißenberg 977 ------ 16.9 10.1 19.3 60 0.0 0 --- NO 12 23 --- ---

 

  • Wetterzustand
  • Windrichtung und -geschwindigkeit
  • Luftdruck
  • relative Luftfeuchtigkeit
  • Sichtweite
  • Gesamtbedeckungsgrad
  • Niederschlag
  • Sonnenscheindauer

 Höhe:     m über NN
Luftd.:   auf Meereshöhe reduzierter Luftdruck in hPa
TEMP.:   Lufttemperatur in Grad Celsius
T-MIN:   Minimumtemperatur der Luft in 2m Höhe in Grad Celsius, von 18 UTC Vortag bis 06 UTC heute
T-MAX:  Maximumtemperatur der Luft in 2m Höhe in Grad Celsius, von 18 UTC Vortag bis 06 UTC heute
RR1:     Niederschlagsmenge, einstündig, mm ist gleich Liter pro
RR12:   Niederschlagsmenge, 12 stündig, 18 UTC Vortag bis 06 UTC heute in mm ist gleich Liter pro
SSS:     Gesamtschneehöhe
DD:      Windrichtung
FF:       Windgeschwindigkeit letztes 10-Minutenmittel in km/h
FX:       höchste Windspitze während der letzten Stunde in km/h
---:      Wert nicht vorhanden

 

2009-2019

Unwetterwarnungen

 

  Radarbild           

aktueller Radarfilm Deutschland

  Europa-Meteoalarm